sensor_id;sensor_type;location;lat;lon;timestamp;pressure;altitude;pressure_sealevel;temperature;humidity
50590;BME280;36547;50.514;30.840;2024-01-15T00:00:49;98523.94;;;0.23;79.84
50590;BME280;36547;50.514;30.840;2024-01-15T00:01:53;98521.22;;;0.26;79.76
50590;BME280;36547;50.514;30.840;2024-01-15T00:02:57;98525.48;;;0.28;79.73
50590;BME280;36547;50.514;30.840;2024-01-15T00:04:00;98525.53;;;0.27;79.71
50590;BME280;36547;50.514;30.840;2024-01-15T00:05:03;98525.53;;;0.27;79.72
50590;BME280;36547;50.514;30.840;2024-01-15T00:06:07;98515.99;;;0.26;79.67
50590;BME280;36547;50.514;30.840;2024-01-15T00:07:09;98522.13;;;0.25;79.79
50590;BME280;36547;50.514;30.840;2024-01-15T00:08:12;98516.84;;;0.26;79.82
50590;BME280;36547;50.514;30.840;2024-01-15T00:09:15;98522.13;;;0.25;79.85
50590;BME280;36547;50.514;30.840;2024-01-15T00:10:17;98525.53;;;0.27;79.92
50590;BME280;36547;50.514;30.840;2024-01-15T00:11:20;98517.70;;;0.27;79.92
50590;BME280;36547;50.514;30.840;2024-01-15T00:12:22;98527.23;;;0.28;79.94
50590;BME280;36547;50.514;30.840;2024-01-15T00:13:25;98522.02;;;0.28;79.90
50590;BME280;36547;50.514;30.840;2024-01-15T00:14:28;98529.85;;;0.28;79.96
50590;BME280;36547;50.514;30.840;2024-01-15T00:15:31;98532.47;;;0.28;79.95
50590;BME280;36547;50.514;30.840;2024-01-15T00:16:34;98524.63;;;0.28;79.98
50590;BME280;36547;50.514;30.840;2024-01-15T00:17:36;98527.23;;;0.28;79.98
50590;BME280;36547;50.514;30.840;2024-01-15T00:18:38;98522.87;;;0.28;79.96
50590;BME280;36547;50.514;30.840;2024-01-15T00:19:41;98525.40;;;0.30;79.96
50590;BME280;36547;50.514;30.840;2024-01-15T00:20:45;98517.56;;;0.30;79.94
50590;BME280;36547;50.514;30.840;2024-01-15T00:21:48;98527.95;;;0.31;79.97
50590;BME280;36547;50.514;30.840;2024-01-15T00:22:51;98533.23;;;0.30;79.93
50590;BME280;36547;50.514;30.840;2024-01-15T00:23:53;98529.66;;;0.32;79.99
50590;BME280;36547;50.514;30.840;2024-01-15T00:24:56;98532.33;;;0.31;79.95
50590;BME280;36547;50.514;30.840;2024-01-15T00:25:58;98521.77;;;0.34;80.00
50590;BME280;36547;50.514;30.840;2024-01-15T00:27:01;98525.19;;;0.36;79.98
50590;BME280;36547;50.514;30.840;2024-01-15T00:28:03;98526.95;;;0.35;79.96
50590;BME280;36547;50.514;30.840;2024-01-15T00:29:09;98525.98;;;0.38;79.92
50590;BME280;36547;50.514;30.840;2024-01-15T00:30:13;98515.48;;;0.40;79.89
50590;BME280;36547;50.514;30.840;2024-01-15T00:31:17;98528.48;;;0.41;79.76
50590;BME280;36547;50.514;30.840;2024-01-15T00:32:20;98516.28;;;0.42;79.81
50590;BME280;36547;50.514;30.840;2024-01-15T00:33:23;98516.28;;;0.42;79.74
50590;BME280;36547;50.514;30.840;2024-01-15T00:34:26;98518.89;;;0.42;79.73
50590;BME280;36547;50.514;30.840;2024-01-15T00:35:28;98520.60;;;0.43;79.73
50590;BME280;36547;50.514;30.840;2024-01-15T00:36:32;98515.37;;;0.43;79.68
50590;BME280;36547;50.514;30.840;2024-01-15T00:37:35;98518.89;;;0.42;79.60
50590;BME280;36547;50.514;30.840;2024-01-15T00:38:37;98524.13;;;0.42;79.67
50590;BME280;36547;50.514;30.840;2024-01-15T00:39:40;98522.36;;;0.42;79.73
50590;BME280;36547;50.514;30.840;2024-01-15T00:40:43;98523.21;;;0.43;79.74
50590;BME280;36547;50.514;30.840;2024-01-15T00:41:45;98524.97;;;0.42;79.72
50590;BME280;36547;50.514;30.840;2024-01-15T00:42:47;98523.31;;;0.40;79.79
50590;BME280;36547;50.514;30.840;2024-01-15T00:43:50;98524.13;;;0.42;79.81
50590;BME280;36547;50.514;30.840;2024-01-15T00:44:52;98526.67;;;0.43;79.80
50590;BME280;36547;50.514;30.840;2024-01-15T00:45:55;98532.72;;;0.44;79.80
50590;BME280;36547;50.514;30.840;2024-01-15T00:46:58;98529.29;;;0.43;79.83
50590;BME280;36547;50.514;30.840;2024-01-15T00:48:01;98528.35;;;0.44;79.83
50590;BME280;36547;50.514;30.840;2024-01-15T00:49:04;98530.06;;;0.45;79.83
50590;BME280;36547;50.514;30.840;2024-01-15T00:50:07;98526.54;;;0.46;79.81
50590;BME280;36547;50.514;30.840;2024-01-15T00:51:10;98522.96;;;0.49;79.81
50590;BME280;36547;50.514;30.840;2024-01-15T00:52:12;98522.11;;;0.48;79.75
50590;BME280;36547;50.514;30.840;2024-01-15T00:53:16;98521.26;;;0.48;79.71
50590;BME280;36547;50.514;30.840;2024-01-15T00:54:23;98523.02;;;0.47;79.73
50590;BME280;36547;50.514;30.840;2024-01-15T00:55:29;98517.80;;;0.47;79.78
50590;BME280;36547;50.514;30.840;2024-01-15T00:56:36;98516.23;;;0.43;79.84
50590;BME280;36547;50.514;30.840;2024-01-15T00:57:42;98518.75;;;0.45;79.91
50590;BME280;36547;50.514;30.840;2024-01-15T00:58:48;98522.27;;;0.44;79.97
50590;BME280;36547;50.514;30.840;2024-01-15T00:59:53;98512.67;;;0.44;80.09
50590;BME280;36547;50.514;30.840;2024-01-15T01:00:59;98511.77;;;0.45;80.14
50590;BME280;36547;50.514;30.840;2024-01-15T01:02:05;98515.17;;;0.47;80.12
50590;BME280;36547;50.514;30.840;2024-01-15T01:03:12;98513.42;;;0.48;80.12
50590;BME280;36547;50.514;30.840;2024-01-15T01:04:16;98513.42;;;0.48;80.20
50590;BME280;36547;50.514;30.840;2024-01-15T01:05:20;98508.20;;;0.48;80.19
50590;BME280;36547;50.514;30.840;2024-01-15T01:06:31;98514.27;;;0.48;80.14
50590;BME280;36547;50.514;30.840;2024-01-15T01:07:36;98514.27;;;0.48;80.19
50590;BME280;36547;50.514;30.840;2024-01-15T01:08:43;98517.80;;;0.47;80.24
50590;BME280;36547;50.514;30.840;2024-01-15T01:09:46;98521.31;;;0.46;80.34
50590;BME280;36547;50.514;30.840;2024-01-15T01:10:55;98517.90;;;0.44;80.42
50590;BME280;36547;50.514;30.840;2024-01-15T01:12:02;98510.86;;;0.46;80.33
50590;BME280;36547;50.514;30.840;2024-01-15T01:13:06;98509.16;;;0.45;80.36
50590;BME280;36547;50.514;30.840;2024-01-15T01:14:17;98514.37;;;0.45;80.39
50590;BME280;36547;50.514;30.840;2024-01-15T01:15:24;98516.09;;;0.46;80.55
50590;BME280;36547;50.514;30.840;2024-01-15T01:16:29;98509.16;;;0.45;80.51
50590;BME280;36547;50.514;30.840;2024-01-15T01:17:35;98516.09;;;0.46;80.55
50590;BME280;36547;50.514;30.840;2024-01-15T01:18:40;98510.06;;;0.44;80.57
50590;BME280;36547;50.514;30.840;2024-01-15T01:19:45;98504.73;;;0.47;80.65
50590;BME280;36547;50.514;30.840;2024-01-15T01:21:07;98502.97;;;0.48;80.61
50590;BME280;36547;50.514;30.840;2024-01-15T01:22:10;98505.53;;;0.49;80.55
50590;BME280;36547;50.514;30.840;2024-01-15T01:23:14;98515.13;;;0.49;80.55
50590;BME280;36547;50.514;30.840;2024-01-15T01:24:17;98514.27;;;0.48;80.57
50590;BME280;36547;50.514;30.840;2024-01-15T01:25:23;98516.83;;;0.50;80.56
50590;BME280;36547;50.514;30.840;2024-01-15T01:26:33;98514.27;;;0.48;80.52
50590;BME280;36547;50.514;30.840;2024-01-15T01:27:38;98507.34;;;0.47;80.61
50590;BME280;36547;50.514;30.840;2024-01-15T01:28:44;98503.93;;;0.45;80.71
50590;BME280;36547;50.514;30.840;2024-01-15T01:29:48;98503.98;;;0.44;80.72
50590;BME280;36547;50.514;30.840;2024-01-15T01:30:57;98504.84;;;0.44;80.80
50590;BME280;36547;50.514;30.840;2024-01-15T01:32:02;98506.59;;;0.44;80.74
50590;BME280;36547;50.514;30.840;2024-01-15T01:33:06;98503.98;;;0.44;80.74
50590;BME280;36547;50.514;30.840;2024-01-15T01:34:14;98503.16;;;0.43;80.84
50590;BME280;36547;50.514;30.840;2024-01-15T01:35:17;98505.78;;;0.43;80.83
50590;BME280;36547;50.514;30.840;2024-01-15T01:36:25;98505.78;;;0.43;80.94
50590;BME280;36547;50.514;30.840;2024-01-15T01:37:29;98509.30;;;0.42;80.88
50590;BME280;36547;50.514;30.840;2024-01-15T01:38:35;98509.30;;;0.42;80.90
50590;BME280;36547;50.514;30.840;2024-01-15T01:39:41;98506.73;;;0.41;80.99
50590;BME280;36547;50.514;30.840;2024-01-15T01:40:47;98510.06;;;0.44;80.92
50590;BME280;36547;50.514;30.840;2024-01-15T01:41:53;98512.81;;;0.41;80.99
50590;BME280;36547;50.514;30.840;2024-01-15T01:43:00;98511.16;;;0.39;81.13
50590;BME280;36547;50.514;30.840;2024-01-15T01:44:07;98506.84;;;0.38;81.24
50590;BME280;36547;50.514;30.840;2024-01-15T01:45:11;98506.90;;;0.36;81.39
50590;BME280;36547;50.514;30.840;2024-01-15T01:46:20;98506.90;;;0.36;81.42
50590;BME280;36547;50.514;30.840;2024-01-15T01:47:23;98509.45;;;0.38;81.39
50590;BME280;36547;50.514;30.840;2024-01-15T01:48:27;98508.50;;;0.40;81.36
50590;BME280;36547;50.514;30.840;2024-01-15T01:49:32;98507.59;;;0.41;81.38
50590;BME280;36547;50.514;30.840;2024-01-15T01:50:41;98512.81;;;0.41;81.40
50590;BME280;36547;50.514;30.840;2024-01-15T01:51:46;98509.41;;;0.39;81.50
50590;BME280;36547;50.514;30.840;2024-01-15T01:52:50;98506.59;;;0.44;81.41
50590;BME280;36547;50.514;30.840;2024-01-15T01:53:57;98511.11;;;0.40;81.43
50590;BME280;36547;50.514;30.840;2024-01-15T01:55:03;98516.34;;;0.40;81.43
50590;BME280;36547;50.514;30.840;2024-01-15T01:56:09;98509.52;;;0.36;81.52
50590;BME280;36547;50.514;30.840;2024-01-15T01:57:13;98509.52;;;0.36;81.60
50590;BME280;36547;50.514;30.840;2024-01-15T01:58:19;98511.22;;;0.37;81.60
50590;BME280;36547;50.514;30.840;2024-01-15T01:59:28;98505.99;;;0.37;81.54
50590;BME280;36547;50.514;30.840;2024-01-15T02:00:34;98514.73;;;0.36;81.55
50590;BME280;36547;50.514;30.840;2024-01-15T02:01:39;98512.92;;;0.38;81.61
50590;BME280;36547;50.514;30.840;2024-01-15T02:02:43;98509.41;;;0.39;81.58
50590;BME280;36547;50.514;30.840;2024-01-15T02:03:46;98512.92;;;0.38;81.55
50590;BME280;36547;50.514;30.840;2024-01-15T02:04:49;98517.24;;;0.39;81.50
50590;BME280;36547;50.514;30.840;2024-01-15T02:05:52;98512.92;;;0.38;81.53
50590;BME280;36547;50.514;30.840;2024-01-15T02:06:59;98511.22;;;0.37;81.52
50590;BME280;36547;50.514;30.840;2024-01-15T02:08:03;98512.92;;;0.38;81.51
50590;BME280;36547;50.514;30.840;2024-01-15T02:09:12;98516.44;;;0.37;81.56
50590;BME280;36547;50.514;30.840;2024-01-15T02:10:18;98513.77;;;0.39;81.59
50590;BME280;36547;50.514;30.840;2024-01-15T02:11:23;98519.96;;;0.36;81.58
50590;BME280;36547;50.514;30.840;2024-01-15T02:12:31;98519.05;;;0.37;81.60
50590;BME280;36547;50.514;30.840;2024-01-15T02:13:34;98514.63;;;0.39;81.57
50590;BME280;36547;50.514;30.840;2024-01-15T02:14:57;98518.04;;;0.41;81.56
50590;BME280;36547;50.514;30.840;2024-01-15T02:16:03;98514.52;;;0.42;81.54
50590;BME280;36547;50.514;30.840;2024-01-15T02:17:09;98514.52;;;0.42;81.52
50590;BME280;36547;50.514;30.840;2024-01-15T02:18:17;98514.52;;;0.42;81.57
50590;BME280;36547;50.514;30.840;2024-01-15T02:19:19;98511.00;;;0.43;81.56
50590;BME280;36547;50.514;30.840;2024-01-15T02:20:26;98516.23;;;0.43;81.57
50590;BME280;36547;50.514;30.840;2024-01-15T02:21:41;98511.00;;;0.43;81.53
50590;BME280;36547;50.514;30.840;2024-01-15T02:22:52;98521.45;;;0.43;81.59
50590;BME280;36547;50.514;30.840;2024-01-15T02:24:02;98516.99;;;0.45;81.54
50590;BME280;36547;50.514;30.840;2024-01-15T02:25:05;98519.61;;;0.45;81.46
50590;BME280;36547;50.514;30.840;2024-01-15T02:26:11;98516.09;;;0.46;81.41
50590;BME280;36547;50.514;30.840;2024-01-15T02:27:20;98517.90;;;0.44;81.36
50590;BME280;36547;50.514;30.840;2024-01-15T02:28:26;98523.02;;;0.47;81.38
50590;BME280;36547;50.514;30.840;2024-01-15T02:29:29;98511.77;;;0.45;81.37
50590;BME280;36547;50.514;30.840;2024-01-15T02:30:36;98516.99;;;0.45;81.39
50590;BME280;36547;50.514;30.840;2024-01-15T02:31:47;98519.61;;;0.45;81.42
50590;BME280;36547;50.514;30.840;2024-01-15T02:32:51;98514.37;;;0.45;81.37
50590;BME280;36547;50.514;30.840;2024-01-15T02:33:56;98514.37;;;0.45;81.35
50590;BME280;36547;50.514;30.840;2024-01-15T02:35:02;98516.14;;;0.45;81.36
50590;BME280;36547;50.514;30.840;2024-01-15T02:36:08;98524.83;;;0.45;81.42
50590;BME280;36547;50.514;30.840;2024-01-15T02:37:10;98522.27;;;0.44;81.36
50590;BME280;36547;50.514;30.840;2024-01-15T02:38:15;98524.13;;;0.42;81.34
50590;BME280;36547;50.514;30.840;2024-01-15T02:39:21;98520.77;;;0.38;81.31
50590;BME280;36547;50.514;30.840;2024-01-15T02:40:28;98516.44;;;0.37;81.38
50590;BME280;36547;50.514;30.840;2024-01-15T02:41:42;98514.63;;;0.39;81.42
50590;BME280;36547;50.514;30.840;2024-01-15T02:42:45;98517.19;;;0.41;81.41
50590;BME280;36547;50.514;30.840;2024-01-15T02:43:53;98515.42;;;0.41;81.43
50590;BME280;36547;50.514;30.840;2024-01-15T02:44:57;98519.75;;;0.42;81.37
50590;BME280;36547;50.514;30.840;2024-01-15T02:46:02;98516.28;;;0.42;81.25
50590;BME280;36547;50.514;30.840;2024-01-15T02:47:12;98519.86;;;0.39;81.12
50590;BME280;36547;50.514;30.840;2024-01-15T02:48:15;98515.48;;;0.40;81.13
50590;BME280;36547;50.514;30.840;2024-01-15T02:49:23;98518.15;;;0.38;81.11
50590;BME280;36547;50.514;30.840;2024-01-15T02:50:29;98520.77;;;0.38;81.10
50590;BME280;36547;50.514;30.840;2024-01-15T02:51:33;98524.28;;;0.37;81.08
50590;BME280;36547;50.514;30.840;2024-01-15T02:52:37;98522.57;;;0.36;81.14
50590;BME280;36547;50.514;30.840;2024-01-15T02:53:40;98532.11;;;0.37;81.24
50590;BME280;36547;50.514;30.840;2024-01-15T02:54:48;98522.52;;;0.38;81.25
50590;BME280;36547;50.514;30.840;2024-01-15T02:55:52;98530.30;;;0.39;81.25
50590;BME280;36547;50.514;30.840;2024-01-15T02:56:57;98525.08;;;0.39;81.33
50590;BME280;36547;50.514;30.840;2024-01-15T02:58:03;98527.74;;;0.38;81.31
50590;BME280;36547;50.514;30.840;2024-01-15T02:59:07;98528.59;;;0.38;81.29
50590;BME280;36547;50.514;30.840;2024-01-15T03:00:13;98527.05;;;0.32;81.37
50590;BME280;36547;50.514;30.840;2024-01-15T03:01:21;98532.22;;;0.34;81.43
50590;BME280;36547;50.514;30.840;2024-01-15T03:02:26;98526.14;;;0.33;81.46
50590;BME280;36547;50.514;30.840;2024-01-15T03:03:30;98529.61;;;0.34;81.54
50590;BME280;36547;50.514;30.840;2024-01-15T03:04:35;98527.91;;;0.33;81.49
50590;BME280;36547;50.514;30.840;2024-01-15T03:05:41;98531.42;;;0.32;81.47
50590;BME280;36547;50.514;30.840;2024-01-15T03:06:45;98523.69;;;0.29;81.44
50590;BME280;36547;50.514;30.840;2024-01-15T03:07:49;98528.91;;;0.29;81.50
50590;BME280;36547;50.514;30.840;2024-01-15T03:08:52;98536.09;;;0.24;81.50
50590;BME280;36547;50.514;30.840;2024-01-15T03:09:55;98536.19;;;0.21;81.49
50590;BME280;36547;50.514;30.840;2024-01-15T03:11:19;98532.67;;;0.22;81.59
50590;BME280;36547;50.514;30.840;2024-01-15T03:12:24;98529.16;;;0.23;81.47
50590;BME280;36547;50.514;30.840;2024-01-15T03:13:27;98527.45;;;0.22;81.37
50590;BME280;36547;50.514;30.840;2024-01-15T03:14:31;98527.55;;;0.19;81.21
50590;BME280;36547;50.514;30.840;2024-01-15T03:15:34;98527.55;;;0.19;81.23
50590;BME280;36547;50.514;30.840;2024-01-15T03:16:37;98525.13;;;0.14;81.10
50590;BME280;36547;50.514;30.840;2024-01-15T03:17:42;98523.48;;;0.12;81.09
50590;BME280;36547;50.514;30.840;2024-01-15T03:18:47;98524.33;;;0.12;81.09
50590;BME280;36547;50.514;30.840;2024-01-15T03:19:52;98525.19;;;0.13;81.11
50590;BME280;36547;50.514;30.840;2024-01-15T03:21:01;98520.87;;;0.12;80.99
50590;BME280;36547;50.514;30.840;2024-01-15T03:22:05;98517.35;;;0.13;80.95
50590;BME280;36547;50.514;30.840;2024-01-15T03:23:11;98522.44;;;0.16;80.92
50590;BME280;36547;50.514;30.840;2024-01-15T03:24:15;98522.44;;;0.16;80.75
50590;BME280;36547;50.514;30.840;2024-01-15T03:25:21;98525.84;;;0.18;80.72
50590;BME280;36547;50.514;30.840;2024-01-15T03:26:27;98518.81;;;0.20;80.68
50590;BME280;36547;50.514;30.840;2024-01-15T03:27:32;98526.70;;;0.18;80.42
50590;BME280;36547;50.514;30.840;2024-01-15T03:28:38;98515.30;;;0.21;80.39
50590;BME280;36547;50.514;30.840;2024-01-15T03:29:43;98518.81;;;0.20;80.24
50590;BME280;36547;50.514;30.840;2024-01-15T03:30:47;98517.00;;;0.22;80.19
50590;BME280;36547;50.514;30.840;2024-01-15T03:32:09;98517.91;;;0.21;80.17
50590;BME280;36547;50.514;30.840;2024-01-15T03:33:12;98522.23;;;0.22;79.91
50590;BME280;36547;50.514;30.840;2024-01-15T03:34:20;98517.00;;;0.22;79.92
50590;BME280;36547;50.514;30.840;2024-01-15T03:35:27;98524.04;;;0.20;79.82
50590;BME280;36547;50.514;30.840;2024-01-15T03:36:32;98519.77;;;0.17;79.79
50590;BME280;36547;50.514;30.840;2024-01-15T03:37:38;98516.26;;;0.18;79.75
50590;BME280;36547;50.514;30.840;2024-01-15T03:38:47;98523.23;;;0.18;79.75
50590;BME280;36547;50.514;30.840;2024-01-15T03:39:55;98513.84;;;0.14;79.61
50590;BME280;36547;50.514;30.840;2024-01-15T03:41:02;98516.36;;;0.15;79.55
50590;BME280;36547;50.514;30.840;2024-01-15T03:42:07;98517.16;;;0.17;79.52
50590;BME280;36547;50.514;30.840;2024-01-15T03:43:10;98519.16;;;0.11;79.28
50590;BME280;36547;50.514;30.840;2024-01-15T03:44:13;98520.87;;;0.12;79.34
50590;BME280;36547;50.514;30.840;2024-01-15T03:45:18;98520.92;;;0.10;79.20
50590;BME280;36547;50.514;30.840;2024-01-15T03:46:24;98519.16;;;0.11;79.32
50590;BME280;36547;50.514;30.840;2024-01-15T03:47:29;98509.52;;;0.13;79.25
50590;BME280;36547;50.514;30.840;2024-01-15T03:48:36;98503.59;;;0.08;79.04
50590;BME280;36547;50.514;30.840;2024-01-15T03:49:42;98509.78;;;0.05;78.99
50590;BME280;36547;50.514;30.840;2024-01-15T03:50:46;98511.59;;;0.03;78.96
50590;BME280;36547;50.514;30.840;2024-01-15T03:51:50;98510.73;;;0.03;78.95
50590;BME280;36547;50.514;30.840;2024-01-15T03:52:54;98510.87;;;-0.01;78.90
50590;BME280;36547;50.514;30.840;2024-01-15T03:54:00;98513.53;;;-0.02;78.86
50590;BME280;36547;50.514;30.840;2024-01-15T03:55:25;98517.09;;;-0.05;78.88
50590;BME280;36547;50.514;30.840;2024-01-15T03:56:29;98520.61;;;-0.06;78.91
50590;BME280;36547;50.514;30.840;2024-01-15T03:57:37;98516.20;;;-0.04;78.89
50590;BME280;36547;50.514;30.840;2024-01-15T03:58:50;98517.05;;;-0.03;78.88
50590;BME280;36547;50.514;30.840;2024-01-15T03:59:56;98511.77;;;-0.02;78.78
50590;BME280;36547;50.514;30.840;2024-01-15T04:01:00;98511.72;;;0.00;78.75
50590;BME280;36547;50.514;30.840;2024-01-15T04:02:05;98510.87;;;-0.01;78.65
50590;BME280;36547;50.514;30.840;2024-01-15T04:03:10;98520.45;;;-0.01;78.54
50590;BME280;36547;50.514;30.840;2024-01-15T04:04:15;98516.20;;;-0.04;78.46
50590;BME280;36547;50.514;30.840;2024-01-15T04:05:30;98520.56;;;-0.04;78.45
50590;BME280;36547;50.514;30.840;2024-01-15T04:06:34;98521.52;;;-0.07;78.34
50590;BME280;36547;50.514;30.840;2024-01-15T04:07:41;98514.48;;;-0.05;78.44
50590;BME280;36547;50.514;30.840;2024-01-15T04:08:46;98511.98;;;-0.08;78.35
50590;BME280;36547;50.514;30.840;2024-01-15T04:09:49;98519.01;;;-0.10;78.42
50590;BME280;36547;50.514;30.840;2024-01-15T04:10:56;98521.52;;;-0.07;78.50
50590;BME280;36547;50.514;30.840;2024-01-15T04:11:59;98512.78;;;-0.06;78.46
50590;BME280;36547;50.514;30.840;2024-01-15T04:13:09;98522.31;;;-0.05;78.31
50590;BME280;36547;50.514;30.840;2024-01-15T04:14:16;98518.00;;;-0.06;78.27
50590;BME280;36547;50.514;30.840;2024-01-15T04:15:21;98520.56;;;-0.04;78.27
50590;BME280;36547;50.514;30.840;2024-01-15T04:16:26;98520.56;;;-0.04;78.21
50590;BME280;36547;50.514;30.840;2024-01-15T04:17:32;98524.08;;;-0.05;78.15
50590;BME280;36547;50.514;30.840;2024-01-15T04:18:39;98514.53;;;-0.06;78.06
50590;BME280;36547;50.514;30.840;2024-01-15T04:19:45;98520.71;;;-0.09;78.07
50590;BME280;36547;50.514;30.840;2024-01-15T04:20:49;98523.22;;;-0.06;78.13
50590;BME280;36547;50.514;30.840;2024-01-15T04:22:01;98521.52;;;-0.07;78.00
50590;BME280;36547;50.514;30.840;2024-01-15T04:23:07;98522.47;;;-0.09;77.87
50590;BME280;36547;50.514;30.840;2024-01-15T04:24:16;98512.88;;;-0.09;77.84
50590;BME280;36547;50.514;30.840;2024-01-15T04:25:23;98516.50;;;-0.13;77.81
50590;BME280;36547;50.514;30.840;2024-01-15T04:26:28;98523.42;;;-0.12;77.86
50590;BME280;36547;50.514;30.840;2024-01-15T04:27:33;98516.55;;;-0.14;77.70
50590;BME280;36547;50.514;30.840;2024-01-15T04:28:40;98524.38;;;-0.14;77.70
50590;BME280;36547;50.514;30.840;2024-01-15T04:29:47;98525.23;;;-0.14;77.74
50590;BME280;36547;50.514;30.840;2024-01-15T04:30:50;98518.25;;;-0.13;77.71
50590;BME280;36547;50.514;30.840;2024-01-15T04:31:58;98524.38;;;-0.14;77.52
50590;BME280;36547;50.514;30.840;2024-01-15T04:33:05;98520.02;;;-0.14;77.40
50590;BME280;36547;50.514;30.840;2024-01-15T04:34:09;98523.47;;;-0.13;77.34
50590;BME280;36547;50.514;30.840;2024-01-15T04:35:13;98525.23;;;-0.14;77.25
50590;BME280;36547;50.514;30.840;2024-01-15T04:36:19;98523.42;;;-0.12;77.20
50590;BME280;36547;50.514;30.840;2024-01-15T04:37:34;98523.47;;;-0.13;77.04
50590;BME280;36547;50.514;30.840;2024-01-15T04:38:38;98519.24;;;-0.16;77.02
50590;BME280;36547;50.514;30.840;2024-01-15T04:39:41;98521.85;;;-0.16;77.03
50590;BME280;36547;50.514;30.840;2024-01-15T04:40:45;98526.03;;;-0.12;77.04
50590;BME280;36547;50.514;30.840;2024-01-15T04:41:53;98527.97;;;-0.17;76.85
50590;BME280;36547;50.514;30.840;2024-01-15T04:42:58;98527.97;;;-0.17;76.79
50590;BME280;36547;50.514;30.840;2024-01-15T04:44:03;98521.20;;;-0.22;76.74
50590;BME280;36547;50.514;30.840;2024-01-15T04:45:09;98526.38;;;-0.21;76.89
50590;BME280;36547;50.514;30.840;2024-01-15T04:46:14;98525.56;;;-0.23;76.82
50590;BME280;36547;50.514;30.840;2024-01-15T04:47:18;98530.78;;;-0.23;76.74
50590;BME280;36547;50.514;30.840;2024-01-15T04:48:21;98534.20;;;-0.21;76.81
50590;BME280;36547;50.514;30.840;2024-01-15T04:49:26;98528.98;;;-0.21;76.75
50590;BME280;36547;50.514;30.840;2024-01-15T04:50:29;98535.15;;;-0.23;76.61
50590;BME280;36547;50.514;30.840;2024-01-15T04:51:38;98537.00;;;-0.27;76.60
50590;BME280;36547;50.514;30.840;2024-01-15T04:52:48;98536.23;;;-0.29;76.65
50590;BME280;36547;50.514;30.840;2024-01-15T04:53:51;98536.23;;;-0.29;76.68
50590;BME280;36547;50.514;30.840;2024-01-15T04:54:55;98543.30;;;-0.32;76.66
50590;BME280;36547;50.514;30.840;2024-01-15T04:55:59;98543.36;;;-0.34;76.68
50590;BME280;36547;50.514;30.840;2024-01-15T04:57:05;98549.47;;;-0.35;76.64
50590;BME280;36547;50.514;30.840;2024-01-15T04:58:11;98552.08;;;-0.35;76.63
50590;BME280;36547;50.514;30.840;2024-01-15T04:59:17;98552.08;;;-0.35;76.70
50590;BME280;36547;50.514;30.840;2024-01-15T05:00:22;98551.28;;;-0.37;76.60
50590;BME280;36547;50.514;30.840;2024-01-15T05:01:25;98553.98;;;-0.40;76.60
50590;BME280;36547;50.514;30.840;2024-01-15T05:02:30;98551.38;;;-0.40;76.70
50590;BME280;36547;50.514;30.840;2024-01-15T05:03:37;98546.11;;;-0.39;76.66
50590;BME280;36547;50.514;30.840;2024-01-15T05:04:43;98551.38;;;-0.40;76.51
50590;BME280;36547;50.514;30.840;2024-01-15T05:05:46;98548.77;;;-0.40;76.41
50590;BME280;36547;50.514;30.840;2024-01-15T05:06:52;98553.18;;;-0.42;76.33
50590;BME280;36547;50.514;30.840;2024-01-15T05:07:58;98544.41;;;-0.40;76.37
50590;BME280;36547;50.514;30.840;2024-01-15T05:09:13;98553.94;;;-0.39;76.25
50590;BME280;36547;50.514;30.840;2024-01-15T05:10:21;98549.52;;;-0.37;76.20
50590;BME280;36547;50.514;30.840;2024-01-15T05:11:28;98548.67;;;-0.37;76.18
50590;BME280;36547;50.514;30.840;2024-01-15T05:12:31;98550.38;;;-0.36;75.98
50590;BME280;36547;50.514;30.840;2024-01-15T05:13:38;98545.16;;;-0.36;75.95
50590;BME280;36547;50.514;30.840;2024-01-15T05:14:42;98552.94;;;-0.34;75.90
50590;BME280;36547;50.514;30.840;2024-01-15T05:15:49;98552.18;;;-0.38;75.74
50590;BME280;36547;50.514;30.840;2024-01-15T05:16:55;98552.18;;;-0.38;75.70
50590;BME280;36547;50.514;30.840;2024-01-15T05:17:58;98550.47;;;-0.39;75.62
50590;BME280;36547;50.514;30.840;2024-01-15T05:19:02;98540.84;;;-0.37;75.74
50590;BME280;36547;50.514;30.840;2024-01-15T05:20:13;98542.59;;;-0.38;75.66
50590;BME280;36547;50.514;30.840;2024-01-15T05:21:21;98547.72;;;-0.34;75.55
50590;BME280;36547;50.514;30.840;2024-01-15T05:22:25;98546.87;;;-0.35;75.47
50590;BME280;36547;50.514;30.840;2024-01-15T05:23:31;98543.36;;;-0.34;75.43
50590;BME280;36547;50.514;30.840;2024-01-15T05:24:36;98545.91;;;-0.32;75.38
50590;BME280;36547;50.514;30.840;2024-01-15T05:25:43;98546.77;;;-0.32;75.23
50590;BME280;36547;50.514;30.840;2024-01-15T05:26:53;98541.55;;;-0.32;75.13
50590;BME280;36547;50.514;30.840;2024-01-15T05:27:57;98536.43;;;-0.35;74.90
50590;BME280;36547;50.514;30.840;2024-01-15T05:29:01;98536.43;;;-0.35;74.79
50590;BME280;36547;50.514;30.840;2024-01-15T05:30:10;98539.09;;;-0.37;74.84
50590;BME280;36547;50.514;30.840;2024-01-15T05:31:17;98540.89;;;-0.39;74.69
50590;BME280;36547;50.514;30.840;2024-01-15T05:32:26;98534.72;;;-0.36;74.78
50590;BME280;36547;50.514;30.840;2024-01-15T05:33:31;98538.23;;;-0.37;74.59
50590;BME280;36547;50.514;30.840;2024-01-15T05:34:38;98539.09;;;-0.37;74.55
50590;BME280;36547;50.514;30.840;2024-01-15T05:35:43;98540.89;;;-0.39;74.58
50590;BME280;36547;50.514;30.840;2024-01-15T05:36:51;98545.16;;;-0.36;74.54
50590;BME280;36547;50.514;30.840;2024-01-15T05:37:59;98543.45;;;-0.37;74.39
50590;BME280;36547;50.514;30.840;2024-01-15T05:39:02;98544.36;;;-0.38;74.45
50590;BME280;36547;50.514;30.840;2024-01-15T05:40:08;98543.45;;;-0.37;74.54
50590;BME280;36547;50.514;30.840;2024-01-15T05:41:12;98552.18;;;-0.38;74.40
50590;BME280;36547;50.514;30.840;2024-01-15T05:42:17;98544.41;;;-0.40;74.30
50590;BME280;36547;50.514;30.840;2024-01-15T05:43:44;98540.03;;;-0.39;74.34
50590;BME280;36547;50.514;30.840;2024-01-15T05:44:50;98537.43;;;-0.39;74.30
50590;BME280;36547;50.514;30.840;2024-01-15T05:45:55;98544.41;;;-0.40;74.22
50590;BME280;36547;50.514;30.840;2024-01-15T05:47:02;98536.52;;;-0.38;74.34